sensor_id;sensor_type;location;lat;lon;timestamp;P1;durP1;ratioP1;P2;durP2;ratioP2
9436;SDS011;4757;59.334;18.034;2023-03-20T00:02:18;2.50;;;1.97;;
9436;SDS011;4757;59.334;18.034;2023-03-20T00:08:44;4.27;;;2.70;;
9436;SDS011;4757;59.334;18.034;2023-03-20T00:11:27;2.90;;;2.53;;
9436;SDS011;4757;59.334;18.034;2023-03-20T00:14:00;3.23;;;2.57;;
9436;SDS011;4757;59.334;18.034;2023-03-20T00:16:38;2.50;;;2.30;;
9436;SDS011;4757;59.334;18.034;2023-03-20T00:19:13;2.93;;;2.30;;
9436;SDS011;4757;59.334;18.034;2023-03-20T00:21:46;2.57;;;2.20;;
9436;SDS011;4757;59.334;18.034;2023-03-20T00:24:14;2.93;;;2.70;;
9436;SDS011;4757;59.334;18.034;2023-03-20T00:26:45;3.50;;;2.57;;
9436;SDS011;4757;59.334;18.034;2023-03-20T00:29:16;3.13;;;2.57;;
9436;SDS011;4757;59.334;18.034;2023-03-20T00:31:53;4.23;;;2.90;;
9436;SDS011;4757;59.334;18.034;2023-03-20T00:34:21;4.77;;;3.17;;
9436;SDS011;4757;59.334;18.034;2023-03-20T00:36:51;3.47;;;2.47;;
9436;SDS011;4757;59.334;18.034;2023-03-20T00:39:20;3.57;;;2.80;;
9436;SDS011;4757;59.334;18.034;2023-03-20T00:46:54;4.37;;;2.77;;
9436;SDS011;4757;59.334;18.034;2023-03-20T00:49:27;3.83;;;3.10;;
9436;SDS011;4757;59.334;18.034;2023-03-20T00:51:57;3.77;;;2.93;;
9436;SDS011;4757;59.334;18.034;2023-03-20T00:54:26;2.93;;;2.50;;
9436;SDS011;4757;59.334;18.034;2023-03-20T00:59:45;3.53;;;2.83;;
9436;SDS011;4757;59.334;18.034;2023-03-20T01:02:19;4.23;;;3.40;;
9436;SDS011;4757;59.334;18.034;2023-03-20T01:04:52;4.70;;;3.00;;
9436;SDS011;4757;59.334;18.034;2023-03-20T01:07:22;3.53;;;2.87;;
9436;SDS011;4757;59.334;18.034;2023-03-20T01:09:49;4.83;;;3.73;;
9436;SDS011;4757;59.334;18.034;2023-03-20T01:12:16;5.33;;;3.40;;
9436;SDS011;4757;59.334;18.034;2023-03-20T01:14:44;4.67;;;3.40;;
9436;SDS011;4757;59.334;18.034;2023-03-20T01:17:17;4.90;;;3.03;;
9436;SDS011;4757;59.334;18.034;2023-03-20T01:19:46;4.60;;;3.03;;
9436;SDS011;4757;59.334;18.034;2023-03-20T01:22:13;4.73;;;3.67;;
9436;SDS011;4757;59.334;18.034;2023-03-20T01:24:40;5.80;;;3.30;;
9436;SDS011;4757;59.334;18.034;2023-03-20T01:27:11;3.80;;;2.97;;
9436;SDS011;4757;59.334;18.034;2023-03-20T01:29:40;3.83;;;2.80;;
9436;SDS011;4757;59.334;18.034;2023-03-20T01:32:12;4.27;;;3.00;;
9436;SDS011;4757;59.334;18.034;2023-03-20T01:34:42;4.33;;;2.67;;
9436;SDS011;4757;59.334;18.034;2023-03-20T01:37:16;5.43;;;2.70;;
9436;SDS011;4757;59.334;18.034;2023-03-20T01:39:50;4.13;;;3.03;;
9436;SDS011;4757;59.334;18.034;2023-03-20T01:45:23;3.30;;;2.70;;
9436;SDS011;4757;59.334;18.034;2023-03-20T01:47:55;3.87;;;2.80;;
9436;SDS011;4757;59.334;18.034;2023-03-20T01:50:25;3.37;;;2.73;;
9436;SDS011;4757;59.334;18.034;2023-03-20T01:53:00;3.27;;;2.50;;
9436;SDS011;4757;59.334;18.034;2023-03-20T01:55:33;2.73;;;2.30;;
9436;SDS011;4757;59.334;18.034;2023-03-20T01:58:03;3.73;;;2.90;;
9436;SDS011;4757;59.334;18.034;2023-03-20T02:00:34;3.50;;;2.83;;
9436;SDS011;4757;59.334;18.034;2023-03-20T02:03:02;3.37;;;2.80;;
9436;SDS011;4757;59.334;18.034;2023-03-20T02:05:31;3.80;;;2.60;;
9436;SDS011;4757;59.334;18.034;2023-03-20T02:08:09;5.33;;;3.20;;
9436;SDS011;4757;59.334;18.034;2023-03-20T02:10:43;3.50;;;2.47;;
9436;SDS011;4757;59.334;18.034;2023-03-20T02:13:12;4.10;;;2.93;;
9436;SDS011;4757;59.334;18.034;2023-03-20T02:18:36;3.33;;;2.57;;
9436;SDS011;4757;59.334;18.034;2023-03-20T02:24:21;2.77;;;2.20;;
9436;SDS011;4757;59.334;18.034;2023-03-20T02:45:54;3.27;;;2.53;;
9436;SDS011;4757;59.334;18.034;2023-03-20T02:48:57;2.80;;;2.40;;
9436;SDS011;4757;59.334;18.034;2023-03-20T02:57:02;3.10;;;2.47;;
9436;SDS011;4757;59.334;18.034;2023-03-20T02:59:58;2.87;;;2.50;;
9436;SDS011;4757;59.334;18.034;2023-03-20T03:02:36;3.73;;;3.30;;
9436;SDS011;4757;59.334;18.034;2023-03-20T03:05:14;3.43;;;2.77;;
9436;SDS011;4757;59.334;18.034;2023-03-20T03:07:46;3.93;;;2.70;;
9436;SDS011;4757;59.334;18.034;2023-03-20T03:10:35;3.30;;;2.60;;
9436;SDS011;4757;59.334;18.034;2023-03-20T03:13:09;3.33;;;2.80;;
9436;SDS011;4757;59.334;18.034;2023-03-20T03:15:41;3.00;;;2.73;;
9436;SDS011;4757;59.334;18.034;2023-03-20T03:18:14;3.93;;;3.33;;
9436;SDS011;4757;59.334;18.034;2023-03-20T03:20:47;3.83;;;3.40;;
9436;SDS011;4757;59.334;18.034;2023-03-20T03:23:40;5.60;;;3.53;;
9436;SDS011;4757;59.334;18.034;2023-03-20T03:26:18;4.83;;;3.10;;
9436;SDS011;4757;59.334;18.034;2023-03-20T03:28:53;5.00;;;2.97;;
9436;SDS011;4757;59.334;18.034;2023-03-20T03:31:23;4.73;;;3.30;;
9436;SDS011;4757;59.334;18.034;2023-03-20T03:33:52;4.10;;;3.30;;
9436;SDS011;4757;59.334;18.034;2023-03-20T03:38:59;4.70;;;3.80;;
9436;SDS011;4757;59.334;18.034;2023-03-20T03:41:33;5.03;;;3.30;;
9436;SDS011;4757;59.334;18.034;2023-03-20T03:44:16;4.83;;;3.33;;
9436;SDS011;4757;59.334;18.034;2023-03-20T03:46:57;5.13;;;3.93;;
9436;SDS011;4757;59.334;18.034;2023-03-20T03:49:32;4.00;;;3.60;;
9436;SDS011;4757;59.334;18.034;2023-03-20T03:52:13;5.13;;;3.37;;
9436;SDS011;4757;59.334;18.034;2023-03-20T03:54:55;3.97;;;3.20;;
9436;SDS011;4757;59.334;18.034;2023-03-20T03:57:30;3.23;;;2.70;;
9436;SDS011;4757;59.334;18.034;2023-03-20T04:00:03;5.13;;;3.77;;
9436;SDS011;4757;59.334;18.034;2023-03-20T04:02:32;3.87;;;2.90;;
9436;SDS011;4757;59.334;18.034;2023-03-20T04:05:00;4.20;;;2.97;;
9436;SDS011;4757;59.334;18.034;2023-03-20T04:07:28;3.37;;;2.80;;
9436;SDS011;4757;59.334;18.034;2023-03-20T04:09:56;4.53;;;2.87;;
9436;SDS011;4757;59.334;18.034;2023-03-20T04:15:01;2.70;;;2.50;;
9436;SDS011;4757;59.334;18.034;2023-03-20T04:17:29;3.40;;;2.90;;
9436;SDS011;4757;59.334;18.034;2023-03-20T04:19:57;3.63;;;3.07;;
9436;SDS011;4757;59.334;18.034;2023-03-20T04:22:24;2.97;;;2.67;;
9436;SDS011;4757;59.334;18.034;2023-03-20T04:24:51;3.13;;;2.57;;
9436;SDS011;4757;59.334;18.034;2023-03-20T04:27:18;2.60;;;2.30;;
9436;SDS011;4757;59.334;18.034;2023-03-20T04:29:46;3.17;;;2.87;;
9436;SDS011;4757;59.334;18.034;2023-03-20T04:32:16;2.60;;;2.30;;
9436;SDS011;4757;59.334;18.034;2023-03-20T04:34:43;2.13;;;1.97;;
9436;SDS011;4757;59.334;18.034;2023-03-20T04:37:11;2.63;;;2.30;;
9436;SDS011;4757;59.334;18.034;2023-03-20T04:39:38;2.13;;;1.73;;
9436;SDS011;4757;59.334;18.034;2023-03-20T04:42:07;2.77;;;2.10;;
9436;SDS011;4757;59.334;18.034;2023-03-20T04:44:34;2.83;;;2.27;;
9436;SDS011;4757;59.334;18.034;2023-03-20T04:47:01;3.43;;;2.03;;
9436;SDS011;4757;59.334;18.034;2023-03-20T04:49:28;3.43;;;2.83;;
9436;SDS011;4757;59.334;18.034;2023-03-20T04:51:56;2.83;;;2.47;;
9436;SDS011;4757;59.334;18.034;2023-03-20T04:54:23;1.97;;;1.80;;
9436;SDS011;4757;59.334;18.034;2023-03-20T04:56:50;3.87;;;3.27;;
9436;SDS011;4757;59.334;18.034;2023-03-20T04:59:17;2.87;;;2.30;;
9436;SDS011;4757;59.334;18.034;2023-03-20T05:01:44;2.87;;;2.53;;
9436;SDS011;4757;59.334;18.034;2023-03-20T05:04:12;2.80;;;2.57;;
9436;SDS011;4757;59.334;18.034;2023-03-20T05:06:39;3.07;;;2.77;;
9436;SDS011;4757;59.334;18.034;2023-03-20T05:09:06;3.10;;;2.80;;
9436;SDS011;4757;59.334;18.034;2023-03-20T05:11:33;3.00;;;2.40;;
9436;SDS011;4757;59.334;18.034;2023-03-20T05:14:00;4.10;;;2.90;;
9436;SDS011;4757;59.334;18.034;2023-03-20T05:16:28;3.40;;;3.10;;
9436;SDS011;4757;59.334;18.034;2023-03-20T05:18:59;3.87;;;3.27;;
9436;SDS011;4757;59.334;18.034;2023-03-20T05:21:26;3.20;;;2.90;;
9436;SDS011;4757;59.334;18.034;2023-03-20T05:23:53;3.83;;;2.73;;
9436;SDS011;4757;59.334;18.034;2023-03-20T05:26:21;4.43;;;3.43;;
9436;SDS011;4757;59.334;18.034;2023-03-20T05:28:48;6.87;;;3.20;;
9436;SDS011;4757;59.334;18.034;2023-03-20T05:31:15;4.77;;;3.53;;
9436;SDS011;4757;59.334;18.034;2023-03-20T05:33:42;6.53;;;3.63;;
9436;SDS011;4757;59.334;18.034;2023-03-20T05:36:10;6.47;;;3.83;;
9436;SDS011;4757;59.334;18.034;2023-03-20T05:38:37;4.97;;;3.60;;
9436;SDS011;4757;59.334;18.034;2023-03-20T05:41:04;6.80;;;3.73;;
9436;SDS011;4757;59.334;18.034;2023-03-20T05:43:31;4.90;;;3.80;;
9436;SDS011;4757;59.334;18.034;2023-03-20T05:45:58;6.90;;;4.13;;
9436;SDS011;4757;59.334;18.034;2023-03-20T05:48:26;7.53;;;4.20;;
9436;SDS011;4757;59.334;18.034;2023-03-20T05:50:53;9.90;;;5.90;;
9436;SDS011;4757;59.334;18.034;2023-03-20T05:53:20;10.90;;;6.40;;
9436;SDS011;4757;59.334;18.034;2023-03-20T05:55:47;7.67;;;5.90;;
9436;SDS011;4757;59.334;18.034;2023-03-20T05:58:14;9.17;;;5.40;;
9436;SDS011;4757;59.334;18.034;2023-03-20T06:00:41;7.27;;;5.27;;
9436;SDS011;4757;59.334;18.034;2023-03-20T06:03:09;7.97;;;4.57;;
9436;SDS011;4757;59.334;18.034;2023-03-20T06:05:38;8.57;;;5.10;;
9436;SDS011;4757;59.334;18.034;2023-03-20T06:08:05;8.03;;;4.83;;
9436;SDS011;4757;59.334;18.034;2023-03-20T06:10:33;10.93;;;5.53;;
9436;SDS011;4757;59.334;18.034;2023-03-20T06:13:00;10.23;;;6.57;;
9436;SDS011;4757;59.334;18.034;2023-03-20T06:15:27;10.30;;;5.73;;
9436;SDS011;4757;59.334;18.034;2023-03-20T06:17:55;8.23;;;5.30;;
9436;SDS011;4757;59.334;18.034;2023-03-20T06:20:22;8.13;;;4.93;;
9436;SDS011;4757;59.334;18.034;2023-03-20T06:22:50;8.17;;;4.70;;
9436;SDS011;4757;59.334;18.034;2023-03-20T06:25:17;9.93;;;4.90;;
9436;SDS011;4757;59.334;18.034;2023-03-20T06:27:46;8.13;;;4.87;;
9436;SDS011;4757;59.334;18.034;2023-03-20T06:30:14;8.10;;;5.53;;
9436;SDS011;4757;59.334;18.034;2023-03-20T06:32:42;8.77;;;6.10;;
9436;SDS011;4757;59.334;18.034;2023-03-20T06:35:09;8.57;;;5.57;;
9436;SDS011;4757;59.334;18.034;2023-03-20T06:37:37;12.13;;;7.47;;
9436;SDS011;4757;59.334;18.034;2023-03-20T06:40:05;10.47;;;6.53;;
9436;SDS011;4757;59.334;18.034;2023-03-20T06:42:33;11.83;;;7.17;;
9436;SDS011;4757;59.334;18.034;2023-03-20T06:45:01;14.00;;;7.37;;
9436;SDS011;4757;59.334;18.034;2023-03-20T06:47:29;12.83;;;7.17;;
9436;SDS011;4757;59.334;18.034;2023-03-20T06:49:56;14.33;;;7.07;;
9436;SDS011;4757;59.334;18.034;2023-03-20T06:52:24;12.87;;;7.23;;
9436;SDS011;4757;59.334;18.034;2023-03-20T06:54:53;10.13;;;6.90;;
9436;SDS011;4757;59.334;18.034;2023-03-20T06:57:22;15.27;;;8.03;;
9436;SDS011;4757;59.334;18.034;2023-03-20T06:59:49;12.60;;;7.37;;
9436;SDS011;4757;59.334;18.034;2023-03-20T07:02:17;14.37;;;7.63;;
9436;SDS011;4757;59.334;18.034;2023-03-20T07:04:47;13.87;;;8.13;;
9436;SDS011;4757;59.334;18.034;2023-03-20T07:07:14;10.33;;;6.03;;
9436;SDS011;4757;59.334;18.034;2023-03-20T07:09:42;12.00;;;8.07;;
9436;SDS011;4757;59.334;18.034;2023-03-20T07:12:12;11.53;;;7.20;;
9436;SDS011;4757;59.334;18.034;2023-03-20T07:14:41;11.27;;;7.80;;
9436;SDS011;4757;59.334;18.034;2023-03-20T07:17:11;15.37;;;8.27;;
9436;SDS011;4757;59.334;18.034;2023-03-20T07:19:38;12.63;;;7.53;;
9436;SDS011;4757;59.334;18.034;2023-03-20T07:22:07;13.13;;;7.97;;
9436;SDS011;4757;59.334;18.034;2023-03-20T07:24:42;15.97;;;8.33;;
9436;SDS011;4757;59.334;18.034;2023-03-20T07:27:12;13.67;;;8.63;;
9436;SDS011;4757;59.334;18.034;2023-03-20T07:29:41;13.50;;;9.17;;
9436;SDS011;4757;59.334;18.034;2023-03-20T07:32:10;12.63;;;8.27;;
9436;SDS011;4757;59.334;18.034;2023-03-20T07:34:37;12.37;;;7.50;;
9436;SDS011;4757;59.334;18.034;2023-03-20T07:37:04;10.83;;;6.90;;
9436;SDS011;4757;59.334;18.034;2023-03-20T07:39:32;15.30;;;8.23;;
9436;SDS011;4757;59.334;18.034;2023-03-20T07:42:02;13.97;;;8.83;;
9436;SDS011;4757;59.334;18.034;2023-03-20T07:44:30;12.80;;;7.57;;
9436;SDS011;4757;59.334;18.034;2023-03-20T07:46:58;13.37;;;7.67;;
9436;SDS011;4757;59.334;18.034;2023-03-20T07:49:26;12.53;;;8.27;;
9436;SDS011;4757;59.334;18.034;2023-03-20T07:51:53;11.40;;;7.67;;
9436;SDS011;4757;59.334;18.034;2023-03-20T07:54:22;15.40;;;10.30;;
9436;SDS011;4757;59.334;18.034;2023-03-20T07:56:51;15.27;;;9.10;;
9436;SDS011;4757;59.334;18.034;2023-03-20T07:59:18;10.83;;;7.53;;
9436;SDS011;4757;59.334;18.034;2023-03-20T08:01:45;16.00;;;9.40;;
9436;SDS011;4757;59.334;18.034;2023-03-20T08:04:13;14.80;;;8.50;;
9436;SDS011;4757;59.334;18.034;2023-03-20T08:06:48;13.47;;;9.00;;
9436;SDS011;4757;59.334;18.034;2023-03-20T08:09:16;12.50;;;8.50;;
9436;SDS011;4757;59.334;18.034;2023-03-20T08:11:44;12.80;;;8.80;;
9436;SDS011;4757;59.334;18.034;2023-03-20T08:14:17;13.43;;;8.40;;
9436;SDS011;4757;59.334;18.034;2023-03-20T08:16:47;15.07;;;8.73;;
9436;SDS011;4757;59.334;18.034;2023-03-20T08:19:37;12.83;;;8.73;;
9436;SDS011;4757;59.334;18.034;2023-03-20T08:22:05;13.83;;;9.03;;
9436;SDS011;4757;59.334;18.034;2023-03-20T08:24:32;16.07;;;9.80;;
9436;SDS011;4757;59.334;18.034;2023-03-20T08:26:59;12.43;;;8.17;;
9436;SDS011;4757;59.334;18.034;2023-03-20T08:29:27;15.13;;;9.10;;
9436;SDS011;4757;59.334;18.034;2023-03-20T08:31:54;13.33;;;8.67;;
9436;SDS011;4757;59.334;18.034;2023-03-20T08:34:24;16.83;;;9.43;;
9436;SDS011;4757;59.334;18.034;2023-03-20T08:36:59;14.80;;;9.00;;
9436;SDS011;4757;59.334;18.034;2023-03-20T08:39:34;14.10;;;8.80;;
9436;SDS011;4757;59.334;18.034;2023-03-20T08:42:03;14.57;;;9.00;;
9436;SDS011;4757;59.334;18.034;2023-03-20T08:44:32;15.13;;;8.63;;
9436;SDS011;4757;59.334;18.034;2023-03-20T08:46:59;16.23;;;9.37;;
9436;SDS011;4757;59.334;18.034;2023-03-20T08:49:27;18.40;;;10.77;;
9436;SDS011;4757;59.334;18.034;2023-03-20T08:51:54;12.97;;;8.83;;
9436;SDS011;4757;59.334;18.034;2023-03-20T08:54:21;18.57;;;9.43;;
9436;SDS011;4757;59.334;18.034;2023-03-20T08:56:49;14.27;;;9.13;;
9436;SDS011;4757;59.334;18.034;2023-03-20T08:59:16;16.17;;;9.63;;
9436;SDS011;4757;59.334;18.034;2023-03-20T09:01:44;14.67;;;9.80;;
9436;SDS011;4757;59.334;18.034;2023-03-20T09:04:16;11.40;;;8.17;;
9436;SDS011;4757;59.334;18.034;2023-03-20T09:06:44;13.23;;;8.97;;
9436;SDS011;4757;59.334;18.034;2023-03-20T09:09:15;15.40;;;9.53;;
9436;SDS011;4757;59.334;18.034;2023-03-20T09:11:47;15.50;;;8.23;;
9436;SDS011;4757;59.334;18.034;2023-03-20T09:14:14;13.93;;;9.10;;
9436;SDS011;4757;59.334;18.034;2023-03-20T09:16:41;13.10;;;8.43;;
9436;SDS011;4757;59.334;18.034;2023-03-20T09:19:09;15.07;;;9.80;;
9436;SDS011;4757;59.334;18.034;2023-03-20T09:21:37;15.13;;;9.57;;
9436;SDS011;4757;59.334;18.034;2023-03-20T09:24:04;15.23;;;9.47;;
9436;SDS011;4757;59.334;18.034;2023-03-20T09:26:32;15.57;;;9.97;;
9436;SDS011;4757;59.334;18.034;2023-03-20T09:28:59;13.60;;;9.03;;
9436;SDS011;4757;59.334;18.034;2023-03-20T09:31:26;13.13;;;9.23;;
9436;SDS011;4757;59.334;18.034;2023-03-20T09:33:54;12.47;;;9.47;;
9436;SDS011;4757;59.334;18.034;2023-03-20T09:36:21;14.23;;;9.40;;
9436;SDS011;4757;59.334;18.034;2023-03-20T09:38:48;15.57;;;9.70;;
9436;SDS011;4757;59.334;18.034;2023-03-20T09:41:20;16.13;;;9.87;;
9436;SDS011;4757;59.334;18.034;2023-03-20T09:55:44;15.03;;;9.57;;
9436;SDS011;4757;59.334;18.034;2023-03-20T09:58:17;12.87;;;9.50;;
9436;SDS011;4757;59.334;18.034;2023-03-20T10:00:54;18.10;;;10.23;;
9436;SDS011;4757;59.334;18.034;2023-03-20T10:08:28;13.40;;;9.67;;
9436;SDS011;4757;59.334;18.034;2023-03-20T10:16:56;17.33;;;10.10;;
9436;SDS011;4757;59.334;18.034;2023-03-20T10:19:51;12.20;;;9.47;;
9436;SDS011;4757;59.334;18.034;2023-03-20T10:22:33;16.67;;;10.77;;
9436;SDS011;4757;59.334;18.034;2023-03-20T10:41:39;15.57;;;10.57;;
9436;SDS011;4757;59.334;18.034;2023-03-20T10:44:21;14.73;;;10.23;;
9436;SDS011;4757;59.334;18.034;2023-03-20T10:46:57;17.17;;;10.63;;
9436;SDS011;4757;59.334;18.034;2023-03-20T10:49:38;14.00;;;9.90;;
9436;SDS011;4757;59.334;18.034;2023-03-20T10:52:13;15.47;;;10.83;;
9436;SDS011;4757;59.334;18.034;2023-03-20T10:54:45;17.50;;;11.83;;
9436;SDS011;4757;59.334;18.034;2023-03-20T10:57:21;16.80;;;10.67;;
9436;SDS011;4757;59.334;18.034;2023-03-20T10:59:51;17.40;;;11.47;;
9436;SDS011;4757;59.334;18.034;2023-03-20T11:02:26;16.87;;;11.63;;
9436;SDS011;4757;59.334;18.034;2023-03-20T11:04:55;16.33;;;11.20;;
9436;SDS011;4757;59.334;18.034;2023-03-20T11:07:31;15.67;;;9.87;;
9436;SDS011;4757;59.334;18.034;2023-03-20T11:12:36;15.77;;;10.60;;
9436;SDS011;4757;59.334;18.034;2023-03-20T11:15:21;19.50;;;13.17;;
9436;SDS011;4757;59.334;18.034;2023-03-20T11:20:23;16.63;;;11.43;;
9436;SDS011;4757;59.334;18.034;2023-03-20T11:22:56;15.43;;;9.97;;
9436;SDS011;4757;59.334;18.034;2023-03-20T11:25:38;13.93;;;10.10;;
9436;SDS011;4757;59.334;18.034;2023-03-20T11:33:41;13.97;;;9.17;;
9436;SDS011;4757;59.334;18.034;2023-03-20T11:36:44;13.53;;;10.00;;
9436;SDS011;4757;59.334;18.034;2023-03-20T11:39:35;13.73;;;9.80;;
9436;SDS011;4757;59.334;18.034;2023-03-20T11:42:04;16.40;;;10.20;;
9436;SDS011;4757;59.334;18.034;2023-03-20T11:45:05;17.23;;;10.13;;
9436;SDS011;4757;59.334;18.034;2023-03-20T11:47:42;13.47;;;9.90;;
9436;SDS011;4757;59.334;18.034;2023-03-20T11:52:56;14.27;;;10.17;;
9436;SDS011;4757;59.334;18.034;2023-03-20T11:55:30;14.70;;;10.23;;
9436;SDS011;4757;59.334;18.034;2023-03-20T11:58:03;13.17;;;9.60;;
9436;SDS011;4757;59.334;18.034;2023-03-20T12:00:37;14.20;;;10.60;;
9436;SDS011;4757;59.334;18.034;2023-03-20T12:03:51;14.77;;;10.27;;
9436;SDS011;4757;59.334;18.034;2023-03-20T12:06:05;15.50;;;10.00;;
9436;SDS011;4757;59.334;18.034;2023-03-20T12:08:35;14.17;;;10.43;;
9436;SDS011;4757;59.334;18.034;2023-03-20T12:14:07;12.83;;;9.37;;
9436;SDS011;4757;59.334;18.034;2023-03-20T12:16:51;17.17;;;11.60;;
9436;SDS011;4757;59.334;18.034;2023-03-20T12:19:27;15.50;;;10.67;;
9436;SDS011;4757;59.334;18.034;2023-03-20T12:22:04;14.60;;;11.23;;
9436;SDS011;4757;59.334;18.034;2023-03-20T12:24:48;15.60;;;11.70;;
9436;SDS011;4757;59.334;18.034;2023-03-20T12:27:35;15.47;;;10.33;;
9436;SDS011;4757;59.334;18.034;2023-03-20T12:30:10;14.00;;;10.60;;
9436;SDS011;4757;59.334;18.034;2023-03-20T12:35:30;15.20;;;13.60;;
9436;SDS011;4757;59.334;18.034;2023-03-20T12:38:07;14.53;;;10.20;;
9436;SDS011;4757;59.334;18.034;2023-03-20T12:40:54;22.47;;;13.10;;
9436;SDS011;4757;59.334;18.034;2023-03-20T12:43:29;13.93;;;10.33;;
9436;SDS011;4757;59.334;18.034;2023-03-20T12:52:09;14.53;;;8.50;;
9436;SDS011;4757;59.334;18.034;2023-03-20T12:55:13;12.87;;;10.57;;
9436;SDS011;4757;59.334;18.034;2023-03-20T13:00:34;13.33;;;9.53;;
9436;SDS011;4757;59.334;18.034;2023-03-20T13:14:55;11.17;;;8.37;;
9436;SDS011;4757;59.334;18.034;2023-03-20T13:20:30;10.73;;;7.87;;
9436;SDS011;4757;59.334;18.034;2023-03-20T13:28:34;9.87;;;7.50;;
9436;SDS011;4757;59.334;18.034;2023-03-20T13:34:24;8.20;;;6.00;;
9436;SDS011;4757;59.334;18.034;2023-03-20T13:37:27;7.47;;;5.93;;
9436;SDS011;4757;59.334;18.034;2023-03-20T13:40:12;6.93;;;5.97;;
9436;SDS011;4757;59.334;18.034;2023-03-20T13:43:36;5.57;;;4.80;;
9436;SDS011;4757;59.334;18.034;2023-03-20T13:46:03;6.73;;;5.27;;
9436;SDS011;4757;59.334;18.034;2023-03-20T13:48:38;5.67;;;5.00;;
9436;SDS011;4757;59.334;18.034;2023-03-20T13:59:29;4.77;;;3.60;;
9436;SDS011;4757;59.334;18.034;2023-03-20T14:05:18;3.63;;;2.30;;
9436;SDS011;4757;59.334;18.034;2023-03-20T14:07:54;4.43;;;2.40;;
9436;SDS011;4757;59.334;18.034;2023-03-20T14:13:03;1.07;;;0.90;;
9436;SDS011;4757;59.334;18.034;2023-03-20T14:15:36;2.27;;;1.40;;
9436;SDS011;4757;59.334;18.034;2023-03-20T14:18:12;2.00;;;1.00;;
9436;SDS011;4757;59.334;18.034;2023-03-20T14:20:49;3.43;;;0.67;;
9436;SDS011;4757;59.334;18.034;2023-03-20T14:23:26;0.97;;;0.90;;
9436;SDS011;4757;59.334;18.034;2023-03-20T14:25:59;0.87;;;0.70;;
9436;SDS011;4757;59.334;18.034;2023-03-20T14:29:00;0.60;;;0.60;;
9436;SDS011;4757;59.334;18.034;2023-03-20T14:31:49;1.37;;;0.70;;
9436;SDS011;4757;59.334;18.034;2023-03-20T14:34:20;0.70;;;0.70;;
9436;SDS011;4757;59.334;18.034;2023-03-20T14:47:59;0.70;;;0.70;;
9436;SDS011;4757;59.334;18.034;2023-03-20T14:50:38;1.17;;;0.80;;
9436;SDS011;4757;59.334;18.034;2023-03-20T14:53:22;1.30;;;0.60;;
9436;SDS011;4757;59.334;18.034;2023-03-20T15:04:05;0.63;;;0.63;;
9436;SDS011;4757;59.334;18.034;2023-03-20T15:06:44;0.80;;;0.60;;
9436;SDS011;4757;59.334;18.034;2023-03-20T15:09:15;1.07;;;0.70;;
9436;SDS011;4757;59.334;18.034;2023-03-20T15:11:43;0.50;;;0.50;;
9436;SDS011;4757;59.334;18.034;2023-03-20T15:14:14;1.90;;;0.70;;
9436;SDS011;4757;59.334;18.034;2023-03-20T15:16:47;1.83;;;0.87;;
9436;SDS011;4757;59.334;18.034;2023-03-20T15:19:30;2.70;;;2.30;;
9436;SDS011;4757;59.334;18.034;2023-03-20T15:21:59;0.87;;;0.87;;
9436;SDS011;4757;59.334;18.034;2023-03-20T15:24:27;0.60;;;0.60;;
9436;SDS011;4757;59.334;18.034;2023-03-20T15:26:58;0.53;;;0.53;;
9436;SDS011;4757;59.334;18.034;2023-03-20T15:29:31;3.10;;;1.27;;
9436;SDS011;4757;59.334;18.034;2023-03-20T15:32:00;0.60;;;0.37;;
9436;SDS011;4757;59.334;18.034;2023-03-20T15:34:40;0.40;;;0.40;;
9436;SDS011;4757;59.334;18.034;2023-03-20T15:37:12;0.70;;;0.70;;
9436;SDS011;4757;59.334;18.034;2023-03-20T15:39:45;0.50;;;0.50;;
9436;SDS011;4757;59.334;18.034;2023-03-20T15:42:19;0.73;;;0.73;;
9436;SDS011;4757;59.334;18.034;2023-03-20T15:44:51;1.60;;;1.20;;
9436;SDS011;4757;59.334;18.034;2023-03-20T15:47:21;0.83;;;0.53;;
9436;SDS011;4757;59.334;18.034;2023-03-20T15:49:53;0.93;;;0.40;;
9436;SDS011;4757;59.334;18.034;2023-03-20T15:52:25;0.40;;;0.40;;
9436;SDS011;4757;59.334;18.034;2023-03-20T15:54:59;0.83;;;0.60;;
9436;SDS011;4757;59.334;18.034;2023-03-20T15:57:35;1.13;;;0.70;;
9436;SDS011;4757;59.334;18.034;2023-03-20T16:00:08;2.97;;;1.90;;
9436;SDS011;4757;59.334;18.034;2023-03-20T16:02:48;0.60;;;0.40;;
9436;SDS011;4757;59.334;18.034;2023-03-20T16:05:18;0.97;;;0.90;;
9436;SDS011;4757;59.334;18.034;2023-03-20T16:07:49;0.97;;;0.40;;
9436;SDS011;4757;59.334;18.034;2023-03-20T16:10:30;0.60;;;0.60;;
9436;SDS011;4757;59.334;18.034;2023-03-20T16:13:02;0.50;;;0.50;;
9436;SDS011;4757;59.334;18.034;2023-03-20T16:15:32;0.63;;;0.63;;
9436;SDS011;4757;59.334;18.034;2023-03-20T16:18:01;2.00;;;0.70;;
9436;SDS011;4757;59.334;18.034;2023-03-20T16:20:33;1.73;;;0.80;;
9436;SDS011;4757;59.334;18.034;2023-03-20T16:23:06;0.80;;;0.80;;
9436;SDS011;4757;59.334;18.034;2023-03-20T16:25:36;0.70;;;0.70;;
9436;SDS011;4757;59.334;18.034;2023-03-20T16:28:44;2.07;;;1.77;;
9436;SDS011;4757;59.334;18.034;2023-03-20T16:42:07;0.53;;;0.40;;
9436;SDS011;4757;59.334;18.034;2023-03-20T16:44:56;0.60;;;0.60;;
9436;SDS011;4757;59.334;18.034;2023-03-20T16:54:22;0.70;;;0.70;;
9436;SDS011;4757;59.334;18.034;2023-03-20T17:01:22;1.40;;;1.03;;
9436;SDS011;4757;59.334;18.034;2023-03-20T17:04:31;1.03;;;0.87;;
9436;SDS011;4757;59.334;18.034;2023-03-20T17:07:37;0.50;;;0.50;;
9436;SDS011;4757;59.334;18.034;2023-03-20T17:14:02;2.30;;;1.10;;
9436;SDS011;4757;59.334;18.034;2023-03-20T17:17:29;2.30;;;1.83;;
9436;SDS011;4757;59.334;18.034;2023-03-20T17:27:34;0.60;;;0.60;;
9436;SDS011;4757;59.334;18.034;2023-03-20T17:30:09;3.37;;;1.60;;
9436;SDS011;4757;59.334;18.034;2023-03-20T17:32:40;3.30;;;2.33;;
9436;SDS011;4757;59.334;18.034;2023-03-20T17:35:10;2.77;;;2.43;;
9436;SDS011;4757;59.334;18.034;2023-03-20T17:37:40;2.17;;;1.37;;
9436;SDS011;4757;59.334;18.034;2023-03-20T17:40:18;1.30;;;1.20;;
9436;SDS011;4757;59.334;18.034;2023-03-20T17:42:50;3.97;;;2.80;;
9436;SDS011;4757;59.334;18.034;2023-03-20T17:45:21;2.10;;;1.10;;
9436;SDS011;4757;59.334;18.034;2023-03-20T17:47:49;1.07;;;0.70;;
9436;SDS011;4757;59.334;18.034;2023-03-20T17:50:21;2.07;;;0.97;;
9436;SDS011;4757;59.334;18.034;2023-03-20T17:52:55;0.67;;;0.67;;
9436;SDS011;4757;59.334;18.034;2023-03-20T17:55:23;0.50;;;0.50;;
9436;SDS011;4757;59.334;18.034;2023-03-20T17:57:51;0.60;;;0.60;;
9436;SDS011;4757;59.334;18.034;2023-03-20T18:00:20;1.00;;;0.80;;
9436;SDS011;4757;59.334;18.034;2023-03-20T18:02:50;1.27;;;0.93;;
9436;SDS011;4757;59.334;18.034;2023-03-20T18:05:17;0.87;;;0.83;;
9436;SDS011;4757;59.334;18.034;2023-03-20T18:07:45;3.13;;;1.67;;
9436;SDS011;4757;59.334;18.034;2023-03-20T18:10:31;2.23;;;1.63;;
9436;SDS011;4757;59.334;18.034;2023-03-20T18:12:58;3.27;;;2.00;;
9436;SDS011;4757;59.334;18.034;2023-03-20T18:15:26;1.67;;;1.27;;
9436;SDS011;4757;59.334;18.034;2023-03-20T18:17:54;3.07;;;1.53;;
9436;SDS011;4757;59.334;18.034;2023-03-20T18:20:27;3.27;;;2.03;;
9436;SDS011;4757;59.334;18.034;2023-03-20T18:22:56;5.70;;;3.20;;
9436;SDS011;4757;59.334;18.034;2023-03-20T18:25:24;1.83;;;1.47;;
9436;SDS011;4757;59.334;18.034;2023-03-20T18:27:53;5.10;;;1.87;;
9436;SDS011;4757;59.334;18.034;2023-03-20T18:30:37;4.73;;;1.83;;
9436;SDS011;4757;59.334;18.034;2023-03-20T18:33:09;1.30;;;0.80;;
9436;SDS011;4757;59.334;18.034;2023-03-20T18:35:39;1.53;;;0.93;;
9436;SDS011;4757;59.334;18.034;2023-03-20T18:38:08;1.30;;;1.03;;
9436;SDS011;4757;59.334;18.034;2023-03-20T18:40:37;1.50;;;1.40;;
9436;SDS011;4757;59.334;18.034;2023-03-20T18:43:05;1.13;;;0.80;;
9436;SDS011;4757;59.334;18.034;2023-03-20T18:45:32;3.20;;;1.23;;
9436;SDS011;4757;59.334;18.034;2023-03-20T18:48:00;2.70;;;1.57;;
9436;SDS011;4757;59.334;18.034;2023-03-20T18:50:36;1.53;;;0.80;;
9436;SDS011;4757;59.334;18.034;2023-03-20T18:53:07;6.17;;;1.60;;
9436;SDS011;4757;59.334;18.034;2023-03-20T18:55:35;3.23;;;1.60;;
9436;SDS011;4757;59.334;18.034;2023-03-20T18:58:08;4.30;;;2.23;;